Time;durP1;ratioP1;P1;durP2;ratioP2;P2;SDS_P1;SDS_P2;PMS_P1;PMS_P2;Temp;Humidity;BMP_temperature;BMP_pressure;BME280_temperature;BME280_humidity;BME280_pressure;Samples;Min_cycle;Max_cycle;Signal;HPM_P1;HPM_P2
2022/03/07 00:01:57;;;;;;;71.53;47.67;;;28.10;96.30;;;;;;4158943;28;20134;-65
2022/03/07 00:04:05;;;;;;;70.50;47.40;;;28.10;96.30;;;;;;4160167;28;20111;-65
2022/03/07 00:06:12;;;;;;;62.83;43.80;;;28.20;96.20;;;;;;4162627;28;20053;-65
2022/03/07 00:08:16;;;;;;;60.33;42.60;;;28.10;96.30;;;;;;4161527;28;20045;-65
2022/03/07 00:10:39;;;;;;;62.42;42.85;;;28.10;96.30;;;;;;4151032;28;20054;-66
2022/03/07 00:12:46;;;;;;;62.13;40.75;;;28.20;96.30;;;;;;4163836;28;20235;-65
2022/03/07 00:14:51;;;;;;;53.75;40.55;;;28.20;96.30;;;;;;4161776;28;20144;-65
2022/03/07 00:16:58;;;;;;;55.88;37.75;;;28.20;96.10;;;;;;4150805;28;20107;-64
2022/03/07 00:19:05;;;;;;;49.88;34.47;;;28.20;96.10;;;;;;4157478;28;20057;-62
2022/03/07 00:21:10;;;;;;;45.70;35.20;;;28.30;95.90;;;;;;4156373;28;20052;-63
2022/03/07 00:23:17;;;;;;;43.28;34.47;;;28.30;95.90;;;;;;4159772;28;20127;-65
2022/03/07 00:25:23;;;;;;;39.63;32.88;;;28.30;95.80;;;;;;4161164;28;20048;-63
2022/03/07 00:27:27;;;;;;;38.35;31.98;;;28.40;95.70;;;;;;4154330;28;20101;-60
2022/03/07 00:29:35;;;;;;;37.83;32.50;;;28.40;95.90;;;;;;4153697;28;20066;-64
2022/03/07 00:31:42;;;;;;;43.53;32.47;;;28.40;95.80;;;;;;4157273;28;20063;-64
2022/03/07 00:33:47;;;;;;;39.33;33.65;;;28.50;95.60;;;;;;4145808;28;20510;-65
2022/03/07 00:35:55;;;;;;;41.80;33.85;;;28.40;95.50;;;;;;4153005;28;20049;-64
2022/03/07 00:38:05;;;;;;;44.65;33.58;;;28.50;95.60;;;;;;4151504;28;20148;-66
2022/03/07 00:40:10;;;;;;;43.20;34.92;;;28.50;95.60;;;;;;4145711;28;20050;-64
2022/03/07 00:42:16;;;;;;;42.15;34.03;;;28.50;95.50;;;;;;4144505;28;20459;-65
2022/03/07 00:44:23;;;;;;;40.53;34.65;;;28.60;95.40;;;;;;4145972;28;20515;-65
2022/03/07 00:46:28;;;;;;;42.13;32.72;;;28.60;95.40;;;;;;4159432;28;20061;-64
2022/03/07 00:48:35;;;;;;;39.47;31.83;;;28.60;95.00;;;;;;4162289;28;20045;-65
2022/03/07 00:50:43;;;;;;;38.95;31.27;;;28.70;94.90;;;;;;4155042;28;20552;-65
2022/03/07 00:52:48;;;;;;;39.33;30.80;;;28.70;94.80;;;;;;4152309;28;20116;-65
2022/03/07 00:54:54;;;;;;;43.13;31.52;;;28.80;94.60;;;;;;4159411;28;20101;-66
2022/03/07 00:57:01;;;;;;;34.63;29.20;;;28.70;94.70;;;;;;4154881;28;20081;-65
2022/03/07 00:59:06;;;;;;;45.63;31.17;;;28.70;94.80;;;;;;4161106;28;20168;-64
2022/03/07 01:01:11;;;;;;;37.35;28.75;;;28.80;94.60;;;;;;4155433;28;20151;-64
2022/03/07 01:03:18;;;;;;;36.67;28.90;;;28.80;94.40;;;;;;4157545;28;20073;-64
2022/03/07 01:05:23;;;;;;;34.92;28.80;;;28.90;94.40;;;;;;4157149;28;20126;-64
2022/03/07 01:07:30;;;;;;;37.60;29.08;;;29.00;94.30;;;;;;4169076;28;20072;-65
2022/03/07 01:09:36;;;;;;;35.15;27.88;;;29.00;94.10;;;;;;4160861;28;20041;-65
2022/03/07 01:11:42;;;;;;;35.60;28.45;;;29.00;94.10;;;;;;4160859;28;20135;-65
2022/03/07 01:13:48;;;;;;;35.72;29.23;;;29.10;93.80;;;;;;4150996;28;20040;-64
2022/03/07 01:15:56;;;;;;;34.88;28.50;;;29.10;93.70;;;;;;4147851;28;20046;-64
2022/03/07 01:18:02;;;;;;;35.40;27.92;;;29.10;93.60;;;;;;4157284;28;20045;-64
2022/03/07 01:20:09;;;;;;;30.73;27.48;;;29.20;93.40;;;;;;4162020;28;20052;-63
2022/03/07 01:22:15;;;;;;;37.42;29.08;;;29.20;93.10;;;;;;4156655;28;20050;-64
2022/03/07 01:24:20;;;;;;;35.97;28.98;;;29.30;93.00;;;;;;4163945;28;20053;-65
2022/03/07 01:26:27;;;;;;;32.10;27.58;;;29.30;93.00;;;;;;4163961;28;20034;-64
2022/03/07 01:28:33;;;;;;;30.67;25.83;;;29.40;92.90;;;;;;4157338;28;20548;-64
2022/03/07 01:30:38;;;;;;;30.35;27.15;;;29.50;92.90;;;;;;4163636;28;20030;-64
2022/03/07 01:32:45;;;;;;;31.52;28.15;;;29.50;92.90;;;;;;4165146;28;20095;-64
2022/03/07 01:34:49;;;;;;;34.38;29.90;;;29.60;92.90;;;;;;4155054;28;20052;-64
2022/03/07 01:36:55;;;;;;;31.85;28.45;;;29.60;92.80;;;;;;4162726;28;20104;-64
2022/03/07 01:38:59;;;;;;;30.90;27.40;;;29.70;92.80;;;;;;4159422;28;20137;-64
2022/03/07 01:41:04;;;;;;;30.42;27.20;;;29.70;92.70;;;;;;4165337;28;20136;-64
2022/03/07 01:43:11;;;;;;;33.42;27.65;;;29.70;92.80;;;;;;4152209;28;20045;-64
2022/03/07 01:45:18;;;;;;;33.05;28.77;;;29.70;92.80;;;;;;4164629;28;20059;-64
2022/03/07 01:47:32;;;;;;;32.25;27.80;;;29.80;92.60;;;;;;4152637;28;20078;-64
2022/03/07 01:49:37;;;;;;;33.67;28.63;;;29.80;92.60;;;;;;4159164;28;20049;-65
2022/03/07 01:51:45;;;;;;;30.17;26.60;;;29.80;92.60;;;;;;4164676;28;20047;-64
2022/03/07 01:53:54;;;;;;;30.50;27.08;;;29.90;92.70;;;;;;4165343;28;20416;-64
2022/03/07 01:56:00;;;;;;;32.45;28.83;;;30.00;92.80;;;;;;4157822;28;20053;-64
2022/03/07 01:58:10;;;;;;;35.60;28.88;;;30.00;92.80;;;;;;4163360;28;20119;-64
2022/03/07 02:00:20;;;;;;;32.08;27.90;;;30.00;92.70;;;;;;4179787;28;20044;-65
2022/03/07 02:02:25;;;;;;;31.95;27.88;;;30.00;92.60;;;;;;4191031;28;20045;-64
2022/03/07 02:04:32;;;;;;;31.95;28.65;;;30.00;92.70;;;;;;4162379;28;20045;-62
2022/03/07 02:06:39;;;;;;;34.10;28.83;;;30.00;92.60;;;;;;4180062;28;20060;-64
2022/03/07 02:08:45;;;;;;;34.53;28.88;;;29.90;92.40;;;;;;4175388;28;20666;-63
2022/03/07 02:10:59;;;;;;;30.88;27.45;;;29.90;92.00;;;;;;4168534;28;20048;-64
2022/03/07 02:13:15;;;;;;;31.20;27.33;;;29.80;92.10;;;;;;4162196;28;20063;-65
2022/03/07 02:15:25;;;;;;;35.13;28.35;;;29.90;92.30;;;;;;4164201;28;20045;-64
2022/03/07 02:17:33;;;;;;;33.72;28.63;;;29.90;92.60;;;;;;4170096;28;20095;-65
2022/03/07 02:19:42;;;;;;;32.42;28.92;;;30.00;92.20;;;;;;4159662;28;20055;-64
2022/03/07 02:21:48;;;;;;;36.42;30.02;;;30.00;92.30;;;;;;4162917;28;20112;-64
2022/03/07 02:24:01;;;;;;;35.67;29.70;;;30.10;92.20;;;;;;4176053;28;20106;-64
2022/03/07 02:26:17;;;;;;;38.80;30.48;;;30.10;92.00;;;;;;4185855;28;20576;-64
2022/03/07 02:28:25;;;;;;;34.88;30.08;;;30.10;91.90;;;;;;4166731;28;20435;-64
2022/03/07 02:30:31;;;;;;;42.60;33.30;;;30.20;92.00;;;;;;4156321;28;20622;-64
2022/03/07 02:32:36;;;;;;;38.88;33.22;;;30.30;92.00;;;;;;4159470;28;20049;-65
2022/03/07 02:34:42;;;;;;;43.80;35.30;;;30.40;92.10;;;;;;4159931;28;20053;-65
2022/03/07 02:36:55;;;;;;;35.03;31.23;;;30.40;92.10;;;;;;4157736;28;20192;-65
2022/03/07 02:39:02;;;;;;;41.55;31.70;;;30.50;92.00;;;;;;4160469;28;20132;-64
2022/03/07 02:41:08;;;;;;;40.63;31.55;;;30.60;91.90;;;;;;4158433;28;20049;-65
2022/03/07 02:43:15;;;;;;;34.67;30.90;;;30.60;91.60;;;;;;4162465;28;20042;-65
2022/03/07 02:45:23;;;;;;;35.33;29.98;;;30.60;91.30;;;;;;4160236;28;20068;-64
2022/03/07 02:47:28;;;;;;;34.55;30.45;;;30.60;91.40;;;;;;4145553;28;20080;-65
2022/03/07 02:49:34;;;;;;;34.33;30.08;;;30.60;91.30;;;;;;4150797;28;20575;-64
2022/03/07 02:51:39;;;;;;;39.42;32.13;;;30.70;91.60;;;;;;4159922;28;20061;-64
2022/03/07 02:53:43;;;;;;;35.15;30.80;;;30.80;91.60;;;;;;4155598;28;20114;-65
2022/03/07 02:55:48;;;;;;;37.30;31.45;;;30.80;91.60;;;;;;4161655;28;20145;-65
2022/03/07 02:57:54;;;;;;;34.60;30.88;;;30.90;91.60;;;;;;4162322;28;20049;-64
2022/03/07 02:59:59;;;;;;;33.05;29.48;;;30.90;91.60;;;;;;4161856;28;20638;-65
2022/03/07 03:02:05;;;;;;;38.17;32.03;;;30.90;91.50;;;;;;4158582;28;20046;-65
2022/03/07 03:04:11;;;;;;;37.60;30.90;;;31.00;91.40;;;;;;4161081;28;20508;-65
2022/03/07 03:06:16;;;;;;;35.75;31.13;;;31.00;91.30;;;;;;4160352;28;20055;-64
2022/03/07 03:08:24;;;;;;;39.42;32.13;;;31.10;91.30;;;;;;4153284;28;20054;-64
2022/03/07 03:10:29;;;;;;;36.17;31.25;;;31.10;91.20;;;;;;4161452;28;20045;-64
2022/03/07 03:12:34;;;;;;;36.33;32.10;;;31.10;91.20;;;;;;4162252;28;20045;-64
2022/03/07 03:14:41;;;;;;;38.17;31.58;;;31.10;91.20;;;;;;4162180;28;20056;-64
2022/03/07 03:16:45;;;;;;;35.83;31.63;;;31.20;91.30;;;;;;4163373;28;20089;-65
2022/03/07 03:18:51;;;;;;;34.67;30.98;;;31.20;91.40;;;;;;4162928;28;20128;-65
2022/03/07 03:20:59;;;;;;;36.20;31.30;;;31.30;91.40;;;;;;4161498;28;20056;-64
2022/03/07 03:23:03;;;;;;;36.25;32.33;;;31.30;91.70;;;;;;4161058;28;20053;-65
2022/03/07 03:25:09;;;;;;;39.58;32.63;;;31.30;91.50;;;;;;4160249;28;20544;-65
2022/03/07 03:27:14;;;;;;;37.60;32.80;;;31.40;91.60;;;;;;4163063;28;20053;-64
2022/03/07 03:29:19;;;;;;;36.28;30.90;;;31.40;91.50;;;;;;4161965;28;20068;-65
2022/03/07 03:31:24;;;;;;;35.58;31.75;;;31.40;91.60;;;;;;4163076;28;20042;-65
2022/03/07 03:33:30;;;;;;;39.20;30.98;;;31.50;92.00;;;;;;4162011;28;20050;-64
2022/03/07 03:35:37;;;;;;;38.58;31.30;;;31.50;91.50;;;;;;4161373;28;20496;-64
2022/03/07 03:37:42;;;;;;;36.67;30.88;;;31.60;91.40;;;;;;4154580;28;20049;-65
2022/03/07 03:39:48;;;;;;;33.85;30.20;;;31.60;91.30;;;;;;4150447;28;20060;-64
2022/03/07 03:41:58;;;;;;;35.47;29.65;;;31.70;91.30;;;;;;4170587;28;20949;-66
2022/03/07 03:44:05;;;;;;;34.65;31.00;;;31.70;91.50;;;;;;4157732;28;20041;-66
2022/03/07 03:46:10;;;;;;;33.08;29.63;;;31.70;91.40;;;;;;4162179;28;20045;-66
2022/03/07 03:48:20;;;;;;;32.97;29.25;;;31.80;91.40;;;;;;4162736;28;20108;-66
2022/03/07 03:50:27;;;;;;;34.63;30.30;;;31.90;91.40;;;;;;4161357;28;20049;-66
2022/03/07 03:52:31;;;;;;;33.17;29.77;;;31.90;91.50;;;;;;4161682;28;20056;-67
2022/03/07 03:54:38;;;;;;;33.05;29.17;;;32.00;91.30;;;;;;4148481;28;20132;-66
2022/03/07 03:56:44;;;;;;;33.63;29.98;;;31.90;90.80;;;;;;4160958;28;20057;-66
2022/03/07 03:58:49;;;;;;;31.92;28.55;;;31.90;91.10;;;;;;4155213;28;20057;-66
2022/03/07 04:00:56;;;;;;;34.58;29.77;;;31.90;91.20;;;;;;4155899;28;20488;-66
2022/03/07 04:03:03;;;;;;;33.17;29.63;;;32.00;91.40;;;;;;4160798;28;20140;-67
2022/03/07 04:05:08;;;;;;;39.83;30.77;;;32.10;91.50;;;;;;4146618;28;21894;-65
2022/03/07 04:07:15;;;;;;;34.72;29.27;;;32.10;91.50;;;;;;4158262;28;20075;-65
2022/03/07 04:09:21;;;;;;;37.00;28.70;;;32.20;91.30;;;;;;4156606;28;20045;-66
2022/03/07 04:11:25;;;;;;;32.05;28.45;;;32.20;91.10;;;;;;4152324;28;20496;-66
2022/03/07 04:13:32;;;;;;;33.00;28.83;;;32.30;91.10;;;;;;4155872;28;20049;-67
2022/03/07 04:15:39;;;;;;;31.90;28.60;;;32.40;91.00;;;;;;4160633;28;20041;-67
2022/03/07 04:17:44;;;;;;;35.65;28.35;;;32.50;91.10;;;;;;4144900;28;20526;-66
2022/03/07 04:19:49;;;;;;;30.90;27.08;;;32.50;91.10;;;;;;4151610;28;20096;-67
2022/03/07 04:21:53;;;;;;;30.55;27.23;;;32.50;90.90;;;;;;4147811;28;20050;-66
2022/03/07 04:23:58;;;;;;;30.15;27.02;;;32.50;90.80;;;;;;4151333;28;20061;-66
2022/03/07 04:26:04;;;;;;;28.55;25.60;;;32.60;90.70;;;;;;4146750;28;20080;-66
2022/03/07 04:28:10;;;;;;;31.00;26.70;;;32.60;90.70;;;;;;4146502;28;20116;-67
2022/03/07 04:30:15;;;;;;;33.28;28.15;;;32.70;90.70;;;;;;4145432;28;20117;-67
2022/03/07 04:32:21;;;;;;;34.25;28.40;;;32.70;90.50;;;;;;4146449;28;20066;-67
2022/03/07 04:34:28;;;;;;;30.45;27.13;;;32.80;90.30;;;;;;4148813;28;20125;-66
2022/03/07 04:36:33;;;;;;;29.45;26.15;;;32.80;90.30;;;;;;4146438;28;20085;-66
2022/03/07 04:38:38;;;;;;;29.17;26.15;;;32.80;90.00;;;;;;4152188;28;20112;-67
2022/03/07 04:40:42;;;;;;;30.10;27.05;;;32.90;90.00;;;;;;4144081;28;20072;-66
2022/03/07 04:42:49;;;;;;;32.83;26.23;;;32.90;89.70;;;;;;4148969;28;20073;-66
2022/03/07 04:44:56;;;;;;;27.73;24.80;;;32.90;89.90;;;;;;4149087;28;20045;-66
2022/03/07 04:47:03;;;;;;;26.77;24.00;;;33.00;90.10;;;;;;4150622;28;20046;-67
2022/03/07 04:49:10;;;;;;;28.30;24.55;;;33.00;90.00;;;;;;4157043;28;20048;-67
2022/03/07 04:51:16;;;;;;;26.45;23.70;;;33.10;90.00;;;;;;4152584;28;20126;-67
2022/03/07 04:53:24;;;;;;;27.15;24.25;;;33.10;89.40;;;;;;4152412;28;20149;-67
2022/03/07 04:55:28;;;;;;;26.88;24.08;;;33.20;89.20;;;;;;4152184;28;20085;-67
2022/03/07 04:57:34;;;;;;;32.42;29.02;;;33.20;89.00;;;;;;4145048;28;20092;-66
2022/03/07 04:59:40;;;;;;;27.60;24.75;;;33.20;89.10;;;;;;4144912;28;20053;-67
2022/03/07 05:01:45;;;;;;;28.63;25.63;;;33.20;87.10;;;;;;4150190;28;20116;-67
2022/03/07 05:03:52;;;;;;;31.15;26.83;;;33.30;87.90;;;;;;4144803;28;20041;-66
2022/03/07 05:05:58;;;;;;;31.05;26.35;;;33.30;88.20;;;;;;4150574;28;20658;-65
2022/03/07 05:08:04;;;;;;;27.27;23.20;;;33.30;87.70;;;;;;4150869;28;20053;-67
2022/03/07 05:10:09;;;;;;;25.88;23.08;;;33.40;86.90;;;;;;4148240;28;20557;-66
2022/03/07 05:12:15;;;;;;;34.92;27.90;;;33.40;86.80;;;;;;4144282;28;20073;-66
2022/03/07 05:14:20;;;;;;;25.63;22.92;;;33.50;87.10;;;;;;4144826;28;20061;-66
2022/03/07 05:16:26;;;;;;;27.08;24.05;;;33.50;87.00;;;;;;4146977;28;20052;-66
2022/03/07 05:18:40;;;;;;;25.58;22.77;;;33.40;86.70;;;;;;4183614;28;20048;-66
2022/03/07 05:20:44;;;;;;;24.55;22.05;;;33.50;86.90;;;;;;4153375;28;20065;-66
2022/03/07 05:23:09;;;;;;;24.40;21.90;;;33.50;86.60;;;;;;4153115;28;20061;-66
2022/03/07 05:25:16;;;;;;;22.48;20.10;;;33.60;86.30;;;;;;4155334;28;20050;-65
2022/03/07 05:27:20;;;;;;;24.20;21.45;;;33.60;85.80;;;;;;4144197;28;20168;-66
2022/03/07 05:29:30;;;;;;;23.75;21.25;;;33.70;86.20;;;;;;4147183;28;20048;-65
2022/03/07 05:31:34;;;;;;;23.05;20.25;;;33.80;86.20;;;;;;4155009;28;20049;-66
2022/03/07 05:33:40;;;;;;;23.33;20.92;;;33.80;86.30;;;;;;4152146;28;20251;-66
2022/03/07 05:35:45;;;;;;;23.27;20.77;;;33.90;85.70;;;;;;4147437;28;20108;-66
2022/03/07 05:37:55;;;;;;;22.88;20.63;;;33.90;86.20;;;;;;4156989;28;20037;-66
2022/03/07 05:40:00;;;;;;;24.67;20.75;;;33.90;85.60;;;;;;4155668;28;20061;-66
2022/03/07 05:42:05;;;;;;;24.27;21.70;;;34.00;85.80;;;;;;4158435;28;20565;-66
2022/03/07 05:44:14;;;;;;;22.60;20.17;;;34.00;85.70;;;;;;4162153;28;20065;-66
2022/03/07 05:46:19;;;;;;;22.83;20.40;;;34.00;84.90;;;;;;4147957;28;20042;-67
2022/03/07 05:48:28;;;;;;;21.92;19.75;;;34.10;84.80;;;;;;4156484;28;20041;-66
2022/03/07 05:50:35;;;;;;;21.25;18.67;;;34.20;84.30;;;;;;4149685;28;20042;-66
2022/03/07 05:52:40;;;;;;;21.38;19.02;;;34.20;83.40;;;;;;4154791;28;20073;-67
2022/03/07 05:54:46;;;;;;;20.80;18.65;;;34.30;83.50;;;;;;4156154;28;21742;-66
2022/03/07 05:56:53;;;;;;;24.20;19.83;;;34.30;83.60;;;;;;4161615;28;20555;-66
2022/03/07 05:58:58;;;;;;;20.00;17.85;;;34.30;83.70;;;;;;4160269;28;20128;-66
2022/03/07 06:01:04;;;;;;;19.85;17.05;;;34.40;81.20;;;;;;4147590;28;20050;-66
2022/03/07 06:03:11;;;;;;;21.15;16.52;;;34.40;81.10;;;;;;4156864;28;20100;-67
2022/03/07 06:05:16;;;;;;;17.35;15.60;;;34.40;80.40;;;;;;4153755;28;20065;-67
2022/03/07 06:07:23;;;;;;;19.15;15.25;;;34.40;80.10;;;;;;4163413;28;20046;-66
2022/03/07 06:09:30;;;;;;;17.27;15.40;;;34.40;79.70;;;;;;4152477;28;20050;-67
2022/03/07 06:11:35;;;;;;;17.05;15.30;;;34.50;79.10;;;;;;4157255;28;20542;-67
2022/03/07 06:13:42;;;;;;;17.30;15.13;;;34.40;78.70;;;;;;4148776;28;20046;-66
2022/03/07 06:15:48;;;;;;;20.13;15.65;;;34.50;79.00;;;;;;4147007;28;20125;-66
2022/03/07 06:17:55;;;;;;;16.17;14.43;;;34.40;78.70;;;;;;4155412;28;20049;-67
2022/03/07 06:20:02;;;;;;;14.98;13.38;;;34.50;79.20;;;;;;4155258;28;20042;-67
2022/03/07 06:22:08;;;;;;;17.20;13.93;;;34.60;78.60;;;;;;4162606;28;20614;-66
2022/03/07 06:24:13;;;;;;;15.20;13.55;;;34.70;78.70;;;;;;4160960;28;20050;-66
2022/03/07 06:26:20;;;;;;;17.08;13.38;;;34.70;78.30;;;;;;4159053;28;20659;-67
2022/03/07 06:28:27;;;;;;;16.63;12.82;;;34.70;77.40;;;;;;4152672;28;20477;-66
2022/03/07 06:30:31;;;;;;;20.95;14.82;;;34.80;77.80;;;;;;4146691;28;20116;-66
2022/03/07 06:32:38;;;;;;;17.75;15.50;;;34.80;76.80;;;;;;4158231;28;20136;-66
2022/03/07 06:34:51;;;;;;;19.02;15.90;;;34.80;76.60;;;;;;4161508;28;20661;-66
2022/03/07 06:36:56;;;;;;;16.98;15.27;;;34.80;76.70;;;;;;4159744;28;20037;-66
2022/03/07 06:39:02;;;;;;;18.85;15.40;;;34.80;77.00;;;;;;4161447;28;20096;-66
2022/03/07 06:41:09;;;;;;;16.65;14.63;;;34.80;76.90;;;;;;4153108;28;20056;-66
2022/03/07 06:43:14;;;;;;;16.50;14.40;;;34.70;77.10;;;;;;4146562;28;20046;-67
2022/03/07 06:45:22;;;;;;;57.05;13.95;;;34.50;76.90;;;;;;4151060;28;20164;-67
2022/03/07 06:47:29;;;;;;;43.92;12.57;;;33.60;77.90;;;;;;4148098;28;20046;-67
2022/03/07 06:49:33;;;;;;;31.50;12.27;;;32.60;79.30;;;;;;4147748;28;20037;-67
2022/03/07 06:51:40;;;;;;;39.75;11.10;;;32.10;80.70;;;;;;4158757;28;20495;-66
2022/03/07 06:53:47;;;;;;;28.48;10.57;;;31.50;82.40;;;;;;4146422;28;20034;-66
2022/03/07 06:55:52;;;;;;;42.13;11.27;;;31.00;83.90;;;;;;4150516;28;20046;-67
2022/03/07 06:57:59;;;;;;;39.95;11.52;;;30.60;85.50;;;;;;4161666;28;20049;-68
2022/03/07 07:00:08;;;;;;;28.48;10.00;;;30.60;86.40;;;;;;4161008;28;20420;-67
2022/03/07 07:02:13;;;;;;;24.02;11.25;;;30.40;88.60;;;;;;4154464;28;20042;-67
2022/03/07 07:04:19;;;;;;;24.77;10.38;;;29.30;91.10;;;;;;4143859;28;20056;-66
2022/03/07 07:06:24;;;;;;;29.05;10.48;;;29.50;91.70;;;;;;4153930;28;20413;-66
2022/03/07 07:08:28;;;;;;;13.73;10.05;;;29.30;92.40;;;;;;4156519;28;20508;-67
2022/03/07 07:10:33;;;;;;;14.65;9.57;;;28.60;93.50;;;;;;4150938;28;20096;-65
2022/03/07 07:12:39;;;;;;;14.00;9.50;;;28.60;93.30;;;;;;4150821;28;20160;-66
2022/03/07 07:14:43;;;;;;;14.00;10.02;;;28.50;93.20;;;;;;4150859;28;20480;-65
2022/03/07 07:16:48;;;;;;;13.05;10.55;;;28.30;93.20;;;;;;4159427;28;20533;-65
2022/03/07 07:18:54;;;;;;;14.10;10.27;;;28.60;93.00;;;;;;4149553;28;20121;-66
2022/03/07 07:20:58;;;;;;;14.52;10.77;;;28.50;93.30;;;;;;4154011;28;20060;-66
2022/03/07 07:23:06;;;;;;;15.48;10.43;;;28.40;93.70;;;;;;4153183;28;20059;-66
2022/03/07 07:25:11;;;;;;;13.77;9.68;;;28.50;93.90;;;;;;4153974;28;20049;-66
2022/03/07 07:27:16;;;;;;;12.50;10.00;;;28.40;94.00;;;;;;4148039;28;20053;-67
2022/03/07 07:29:21;;;;;;;12.98;9.70;;;28.40;93.90;;;;;;4150139;28;20050;-67
2022/03/07 07:31:28;;;;;;;10.15;9.00;;;28.50;93.50;;;;;;4152474;28;20052;-66
2022/03/07 07:33:33;;;;;;;11.77;8.68;;;28.20;93.30;;;;;;4153558;28;20048;-66
2022/03/07 07:35:39;;;;;;;10.95;8.43;;;28.40;93.40;;;;;;4155398;28;20052;-65
2022/03/07 07:37:46;;;;;;;11.13;8.27;;;28.70;93.20;;;;;;4154575;28;20059;-65
2022/03/07 07:39:50;;;;;;;18.77;9.02;;;28.90;92.90;;;;;;4152937;28;20141;-66
2022/03/07 07:41:57;;;;;;;11.75;9.02;;;28.40;93.50;;;;;;4153112;28;20053;-66
2022/03/07 07:44:04;;;;;;;11.20;9.02;;;28.30;93.70;;;;;;4158154;28;20045;-66
2022/03/07 07:46:11;;;;;;;14.10;10.27;;;28.50;93.50;;;;;;4157822;28;20107;-66
2022/03/07 07:48:17;;;;;;;10.75;8.75;;;28.60;93.20;;;;;;4159681;28;20427;-66
2022/03/07 07:50:22;;;;;;;16.60;8.45;;;28.90;92.70;;;;;;4154732;28;20063;-66
2022/03/07 07:52:27;;;;;;;9.90;8.65;;;28.70;92.80;;;;;;4153626;28;20523;-67
2022/03/07 07:54:33;;;;;;;10.57;7.93;;;28.40;93.00;;;;;;4153857;28;20053;-67
2022/03/07 07:56:39;;;;;;;10.07;8.32;;;28.50;93.00;;;;;;4159399;28;20141;-67
2022/03/07 07:58:44;;;;;;;11.00;9.18;;;28.10;93.20;;;;;;4154871;28;20056;-66
2022/03/07 08:00:51;;;;;;;10.40;7.80;;;28.40;93.10;;;;;;4156224;28;20071;-66
2022/03/07 08:02:58;;;;;;;10.35;8.98;;;28.30;93.30;;;;;;4161000;28;20038;-67
2022/03/07 08:05:04;;;;;;;9.57;8.38;;;28.10;93.50;;;;;;4152743;28;20046;-66
2022/03/07 08:07:10;;;;;;;10.45;8.35;;;28.20;93.40;;;;;;4148687;28;20088;-67
2022/03/07 08:09:15;;;;;;;9.18;7.63;;;28.30;93.10;;;;;;4149269;28;20038;-67
2022/03/07 08:11:20;;;;;;;9.93;8.60;;;28.00;93.20;;;;;;4145127;28;20136;-66
2022/03/07 08:13:26;;;;;;;10.32;8.57;;;28.00;93.60;;;;;;4159436;28;20077;-66
2022/03/07 08:15:31;;;;;;;10.40;8.02;;;28.30;93.40;;;;;;4161977;28;20065;-66
2022/03/07 08:17:36;;;;;;;9.40;8.40;;;28.30;93.30;;;;;;4159329;28;20073;-66
2022/03/07 08:19:43;;;;;;;11.25;8.93;;;28.30;93.40;;;;;;4150750;28;20484;-63
2022/03/07 08:21:49;;;;;;;10.65;8.70;;;28.50;93.10;;;;;;4162200;28;20054;-66
2022/03/07 08:23:55;;;;;;;9.80;8.57;;;28.40;92.70;;;;;;4156104;28;20042;-65
2022/03/07 08:25:59;;;;;;;8.50;7.70;;;28.60;92.10;;;;;;4158528;28;20061;-66
2022/03/07 08:28:04;;;;;;;9.48;8.23;;;28.70;92.00;;;;;;4159638;28;20111;-66
2022/03/07 08:30:12;;;;;;;12.38;8.50;;;28.80;91.90;;;;;;4160781;28;20132;-64
2022/03/07 08:32:17;;;;;;;9.93;8.35;;;28.90;91.80;;;;;;4160088;28;20045;-65
2022/03/07 08:34:22;;;;;;;13.43;8.25;;;28.90;91.90;;;;;;4159705;28;20044;-65
2022/03/07 08:36:27;;;;;;;9.73;8.73;;;29.00;91.60;;;;;;4159689;28;20540;-65
2022/03/07 08:38:32;;;;;;;10.82;8.57;;;29.00;91.50;;;;;;4159976;28;20045;-66
2022/03/07 08:40:37;;;;;;;11.88;9.82;;;29.00;91.60;;;;;;4159103;28;20052;-65
2022/03/07 08:42:42;;;;;;;11.38;10.27;;;29.00;91.70;;;;;;4161841;28;20087;-66
2022/03/07 08:44:52;;;;;;;11.10;9.90;;;29.10;91.40;;;;;;4158965;28;20069;-66
2022/03/07 08:46:59;;;;;;;12.75;10.32;;;29.10;91.30;;;;;;4162512;28;20041;-64
2022/03/07 08:49:04;;;;;;;12.68;10.73;;;29.00;91.40;;;;;;4160741;28;20043;-65
2022/03/07 08:51:09;;;;;;;13.18;11.80;;;29.10;91.50;;;;;;4162223;28;20392;-66
2022/03/07 08:53:16;;;;;;;12.13;10.93;;;29.00;91.80;;;;;;4161171;28;20042;-64
2022/03/07 08:55:21;;;;;;;13.43;12.13;;;28.80;92.10;;;;;;4161922;28;20049;-65
2022/03/07 08:57:28;;;;;;;16.08;12.43;;;28.70;92.40;;;;;;4161299;28;20061;-65
2022/03/07 08:59:32;;;;;;;15.40;13.65;;;28.80;92.40;;;;;;4156810;28;20512;-64
2022/03/07 09:01:37;;;;;;;19.70;14.18;;;28.80;92.50;;;;;;4149315;28;20099;-64
2022/03/07 09:03:45;;;;;;;16.85;15.05;;;28.90;92.40;;;;;;4162217;28;20087;-63
2022/03/07 09:05:52;;;;;;;17.25;14.75;;;29.00;92.40;;;;;;4160706;28;20091;-64
2022/03/07 09:07:57;;;;;;;17.02;15.10;;;29.10;92.30;;;;;;4161838;28;20069;-64
2022/03/07 09:10:02;;;;;;;15.70;13.68;;;29.10;92.30;;;;;;4155496;28;20045;-64
2022/03/07 09:12:09;;;;;;;15.52;13.82;;;29.20;92.20;;;;;;4158903;28;20168;-67
2022/03/07 09:14:14;;;;;;;15.52;13.85;;;29.20;92.30;;;;;;4163727;28;20049;-67
2022/03/07 09:16:19;;;;;;;16.50;14.20;;;29.10;92.30;;;;;;4158714;28;20081;-67
2022/03/07 09:18:27;;;;;;;16.42;14.18;;;29.10;92.40;;;;;;4149335;28;20152;-66
2022/03/07 09:20:31;;;;;;;15.55;13.95;;;29.10;92.40;;;;;;4151005;28;20057;-66
2022/03/07 09:22:39;;;;;;;16.15;14.45;;;29.10;92.50;;;;;;4165078;28;20061;-66
2022/03/07 09:24:45;;;;;;;16.40;14.43;;;29.10;92.60;;;;;;4159560;28;20610;-67
2022/03/07 09:26:50;;;;;;;17.48;13.77;;;29.10;92.70;;;;;;4155058;28;20420;-67
2022/03/07 09:28:57;;;;;;;16.45;14.30;;;29.00;92.80;;;;;;4150675;28;20042;-67
2022/03/07 09:31:03;;;;;;;18.67;15.07;;;29.10;93.00;;;;;;4152651;28;20065;-67
2022/03/07 09:33:08;;;;;;;17.88;15.98;;;29.00;93.10;;;;;;4155633;28;20092;-67
2022/03/07 09:35:15;;;;;;;19.65;17.58;;;29.00;93.20;;;;;;4156555;28;20100;-67
2022/03/07 09:37:22;;;;;;;23.80;17.60;;;28.90;93.30;;;;;;4157169;28;20069;-67
2022/03/07 09:39:27;;;;;;;19.63;16.88;;;28.80;93.50;;;;;;4162185;28;20127;-67
2022/03/07 09:41:33;;;;;;;19.95;16.45;;;28.80;93.70;;;;;;4149173;28;20052;-66
2022/03/07 09:43:40;;;;;;;20.40;16.95;;;28.80;93.90;;;;;;4151001;28;20065;-65
2022/03/07 09:45:45;;;;;;;20.58;17.23;;;28.80;93.90;;;;;;4164610;28;20132;-65
2022/03/07 09:47:50;;;;;;;23.55;17.70;;;28.70;94.60;;;;;;4157051;28;20477;-65
2022/03/07 09:49:55;;;;;;;24.63;18.65;;;28.70;95.00;;;;;;4164283;28;20103;-65
2022/03/07 09:52:00;;;;;;;26.15;22.20;;;28.60;95.40;;;;;;4151425;28;20050;-65
2022/03/07 09:54:07;;;;;;;26.83;22.48;;;28.50;95.30;;;;;;4163764;28;20046;-65
2022/03/07 09:56:14;;;;;;;28.02;22.15;;;28.40;95.70;;;;;;4162472;28;20473;-65
2022/03/07 09:58:18;;;;;;;27.88;23.13;;;28.40;96.30;;;;;;4161229;28;20084;-65
2022/03/07 10:00:23;;;;;;;32.53;23.02;;;28.50;96.20;;;;;;4164445;28;20067;-65
2022/03/07 10:02:30;;;;;;;29.50;23.58;;;28.50;96.50;;;;;;4162636;28;20053;-65
2022/03/07 10:04:40;;;;;;;30.52;22.38;;;28.50;96.60;;;;;;4157982;28;20052;-65
2022/03/07 10:06:50;;;;;;;26.95;19.92;;;28.40;97.00;;;;;;4156598;28;20088;-66
2022/03/07 10:08:58;;;;;;;36.80;21.10;;;28.30;96.90;;;;;;4149817;28;20537;-65
2022/03/07 10:11:08;;;;;;;32.10;21.30;;;28.30;97.40;;;;;;4150920;28;20649;-67
2022/03/07 10:13:15;;;;;;;29.15;21.80;;;28.30;97.30;;;;;;4154813;28;20046;-66
2022/03/07 10:15:21;;;;;;;38.88;27.55;;;28.30;98.00;;;;;;4161576;28;20526;-65
2022/03/07 10:17:27;;;;;;;42.97;28.98;;;28.10;99.00;;;;;;4162154;28;20776;-66
2022/03/07 10:19:33;;;;;;;32.17;24.98;;;28.00;98.80;;;;;;4157572;28;20057;-65
2022/03/07 10:21:48;;;;;;;36.17;29.77;;;28.10;98.30;;;;;;4170144;28;20115;-65
2022/03/07 10:23:54;;;;;;;32.28;26.10;;;28.10;98.30;;;;;;4161743;28;20084;-65
2022/03/07 10:26:08;;;;;;;27.23;24.08;;;28.10;98.40;;;;;;4167324;28;20140;-66
2022/03/07 10:28:20;;;;;;;32.40;23.80;;;28.10;98.60;;;;;;4157009;28;20053;-68
2022/03/07 10:30:32;;;;;;;32.67;25.35;;;28.10;98.60;;;;;;4149749;28;20137;-65
2022/03/07 10:32:37;;;;;;;30.67;25.23;;;28.00;98.70;;;;;;4150089;28;20052;-65
2022/03/07 10:34:44;;;;;;;31.52;24.98;;;27.90;98.50;;;;;;4145353;28;20050;-65
2022/03/07 10:36:48;;;;;;;24.42;21.70;;;27.90;98.50;;;;;;4149777;28;20124;-65
2022/03/07 10:38:58;;;;;;;23.83;20.60;;;27.80;98.50;;;;;;4144909;28;20045;-66
2022/03/07 10:41:04;;;;;;;22.90;20.50;;;27.80;98.60;;;;;;4149762;28;20044;-66
2022/03/07 10:43:09;;;;;;;22.92;20.40;;;27.80;98.40;;;;;;4148292;28;20141;-66